createdAt,value
2019-02-27T00:02:28.407Z,7.33
2019-02-27T00:04:56.629Z,7.20
2019-02-27T00:07:24.848Z,6.67
2019-02-27T00:09:53.099Z,7.57
2019-02-27T00:12:21.322Z,7.63
2019-02-27T00:14:49.538Z,7.63
2019-02-27T00:17:18.078Z,7.33
2019-02-27T00:19:47.515Z,6.70
2019-02-27T00:22:17.690Z,7.43
2019-02-27T00:24:45.681Z,11.27
2019-02-27T00:27:14.807Z,8.97
2019-02-27T00:29:43.532Z,7.30
2019-02-27T00:32:11.800Z,7.17
2019-02-27T00:34:40.017Z,7.57
2019-02-27T00:37:08.234Z,7.07
2019-02-27T00:39:36.449Z,7.67
2019-02-27T00:42:04.673Z,7.20
2019-02-27T00:44:34.735Z,7.23
2019-02-27T00:47:02.856Z,7.70
2019-02-27T00:49:32.335Z,8.27
2019-02-27T00:52:00.986Z,7.70
2019-02-27T00:54:31.351Z,6.63
2019-02-27T00:56:59.127Z,7.07
2019-02-27T00:59:27.332Z,7.50
2019-02-27T01:01:55.550Z,6.20
2019-02-27T01:04:23.850Z,6.77
2019-02-27T01:06:52.134Z,7.97
2019-02-27T01:09:20.359Z,7.40
2019-02-27T01:11:51.526Z,6.70
2019-02-27T01:14:18.666Z,6.43
2019-02-27T01:16:47.682Z,6.27
2019-02-27T01:19:16.811Z,7.07
2019-02-27T01:21:45.026Z,7.13
2019-02-27T01:24:17.159Z,7.03
2019-02-27T01:26:43.154Z,7.37
2019-02-27T01:29:11.362Z,7.63
2019-02-27T01:31:39.574Z,6.50
2019-02-27T01:34:11.146Z,7.47
2019-02-27T01:36:37.710Z,7.13
2019-02-27T01:39:08.987Z,7.67
2019-02-27T01:41:36.627Z,7.47
2019-02-27T01:44:04.910Z,7.17
2019-02-27T01:46:33.126Z,7.67
2019-02-27T01:49:01.339Z,6.87
2019-02-27T01:51:29.554Z,7.60
2019-02-27T01:53:57.771Z,8.40
2019-02-27T01:56:28.888Z,6.70
2019-02-27T01:58:55.935Z,6.83
2019-02-27T02:01:24.148Z,7.80
2019-02-27T02:03:52.367Z,6.97
2019-02-27T02:06:20.582Z,7.00
2019-02-27T02:08:50.358Z,6.40
2019-02-27T02:11:18.561Z,6.77
2019-02-27T02:14:03.495Z,7.10
2019-02-27T02:16:34.314Z,8.27
2019-02-27T02:19:07.331Z,7.80
2019-02-27T02:21:37.079Z,7.23
2019-02-27T02:24:23.331Z,6.67
2019-02-27T02:26:59.111Z,6.50
2019-02-27T02:29:47.190Z,7.17
2019-02-27T02:32:23.158Z,6.80
2019-02-27T02:34:55.579Z,7.23
2019-02-27T02:37:27.985Z,6.97
2019-02-27T02:40:09.640Z,6.43
2019-02-27T02:42:48.307Z,6.87
2019-02-27T02:45:21.035Z,6.70
2019-02-27T02:47:56.848Z,6.57
2019-02-27T02:50:38.955Z,6.83
2019-02-27T02:53:08.723Z,8.33
2019-02-27T02:55:56.456Z,6.97
2019-02-27T02:58:32.196Z,7.43
2019-02-27T03:01:01.955Z,8.03
2019-02-27T03:03:43.713Z,8.20
2019-02-27T03:06:13.763Z,7.20
2019-02-27T03:08:43.531Z,7.17
2019-02-27T03:11:19.028Z,6.37
2019-02-27T03:13:53.154Z,7.17
2019-02-27T03:16:22.911Z,7.43
2019-02-27T03:18:55.343Z,6.43
2019-02-27T03:21:33.932Z,8.03
2019-02-27T03:24:27.950Z,6.40
2019-02-27T03:26:55.761Z,6.57
2019-02-27T03:29:34.268Z,6.63
2019-02-27T03:32:13.081Z,6.53
2019-02-27T03:34:50.375Z,5.90
2019-02-27T03:37:26.431Z,6.07
2019-02-27T03:40:12.611Z,6.27
2019-02-27T03:42:54.112Z,7.97
2019-02-27T03:45:35.920Z,7.80
2019-02-27T03:48:05.673Z,7.03
2019-02-27T03:50:35.435Z,6.40
2019-02-27T03:53:17.372Z,6.20
2019-02-27T03:55:49.773Z,7.13
2019-02-27T03:58:30.032Z,6.97
2019-02-27T04:00:59.892Z,6.77
2019-02-27T04:03:44.892Z,7.67
2019-02-27T04:06:19.636Z,6.20
2019-02-27T04:08:53.036Z,8.00
2019-02-27T04:11:21.268Z,8.20
2019-02-27T04:13:49.475Z,7.03
2019-02-27T04:16:17.706Z,6.83
2019-02-27T04:18:45.927Z,7.33
2019-02-27T04:21:14.414Z,7.13
2019-02-27T04:23:47.751Z,7.83
2019-02-27T04:26:12.566Z,7.10
2019-02-27T04:28:40.780Z,6.80
2019-02-27T04:31:09.000Z,7.27
2019-02-27T04:33:37.231Z,7.10
2019-02-27T04:36:05.458Z,7.33
2019-02-27T04:38:33.672Z,6.93
2019-02-27T04:41:01.895Z,7.87
2019-02-27T04:43:32.294Z,6.50
2019-02-27T04:46:00.039Z,7.67
2019-02-27T04:48:29.923Z,7.77
2019-02-27T04:50:58.174Z,7.57
2019-02-27T04:53:31.613Z,7.40
2019-02-27T04:55:56.623Z,7.23
2019-02-27T04:58:24.839Z,7.77
2019-02-27T05:00:53.074Z,7.23
2019-02-27T05:03:21.281Z,9.00
2019-02-27T05:05:49.511Z,7.40
2019-02-27T05:08:17.726Z,7.53
2019-02-27T05:10:45.951Z,7.67
2019-02-27T05:13:14.159Z,8.97
2019-02-27T05:15:42.377Z,7.63
2019-02-27T05:18:10.578Z,8.40
2019-02-27T05:20:38.817Z,8.77
2019-02-27T05:23:07.046Z,8.03
2019-02-27T05:25:35.267Z,7.67
2019-02-27T05:28:03.487Z,8.50
2019-02-27T05:30:31.711Z,8.13
2019-02-27T05:33:02.240Z,8.13
2019-02-27T05:35:29.903Z,8.20
2019-02-27T05:37:58.124Z,8.07
2019-02-27T05:40:26.665Z,7.27
2019-02-27T05:42:54.934Z,8.00
2019-02-27T05:45:23.151Z,9.00
2019-02-27T05:47:51.386Z,8.33
2019-02-27T05:50:19.595Z,9.20
2019-02-27T05:52:48.798Z,8.00
2019-02-27T05:55:17.915Z,8.17
2019-02-27T05:57:46.137Z,8.10
2019-02-27T06:00:15.604Z,7.63
2019-02-27T06:02:45.011Z,8.07
2019-02-27T06:05:13.916Z,9.03
2019-02-27T06:07:42.142Z,9.70
2019-02-27T06:10:14.097Z,10.97
2019-02-27T06:12:42.466Z,9.57
2019-02-27T06:15:12.148Z,9.60
2019-02-27T06:17:43.410Z,9.67
2019-02-27T06:20:10.296Z,9.83
2019-02-27T06:22:38.620Z,9.67
2019-02-27T06:25:08.522Z,8.27
2019-02-27T06:27:37.158Z,8.00
2019-02-27T06:30:08.541Z,8.93
2019-02-27T06:32:36.774Z,8.13
2019-02-27T06:35:06.352Z,8.73
2019-02-27T06:37:34.567Z,9.57
2019-02-27T06:40:04.795Z,7.70
2019-02-27T06:42:33.080Z,7.67
2019-02-27T06:45:01.291Z,7.20
2019-02-27T06:47:29.831Z,6.27
2019-02-27T06:49:58.050Z,6.67
2019-02-27T06:52:26.275Z,7.07
2019-02-27T06:54:54.491Z,5.90
2019-02-27T06:57:22.711Z,6.80
2019-02-27T06:59:50.926Z,6.20
2019-02-27T07:02:21.549Z,6.77
2019-02-27T07:04:49.051Z,6.20
2019-02-27T07:07:17.277Z,6.90
2019-02-27T07:09:45.834Z,6.83
2019-02-27T07:12:14.786Z,6.33
2019-02-27T07:14:43.007Z,7.77
2019-02-27T07:17:11.235Z,11.60
2019-02-27T07:19:39.787Z,8.73
2019-02-27T07:22:09.217Z,6.60
2019-02-27T07:24:38.003Z,7.60
2019-02-27T07:27:06.240Z,8.70
2019-02-27T07:29:34.447Z,8.30
2019-02-27T07:32:02.675Z,6.77
2019-02-27T07:34:30.902Z,6.27
2019-02-27T07:36:59.129Z,6.87
2019-02-27T07:39:27.351Z,7.37
2019-02-27T07:41:55.562Z,7.27
2019-02-27T07:44:23.791Z,7.60
2019-02-27T07:46:52.011Z,7.47
2019-02-27T07:49:20.227Z,7.03
2019-02-27T07:51:48.591Z,6.30
2019-02-27T07:54:16.943Z,9.30
2019-02-27T07:56:45.150Z,7.73
2019-02-27T07:59:13.651Z,6.70
2019-02-27T08:01:44.074Z,7.13
2019-02-27T08:04:11.790Z,7.53
2019-02-27T08:06:41.460Z,7.83
2019-02-27T08:09:10.141Z,6.57
2019-02-27T08:11:38.354Z,7.87
2019-02-27T08:14:06.582Z,7.73
2019-02-27T08:16:36.932Z,7.13
2019-02-27T08:19:04.707Z,7.10
2019-02-27T08:21:32.916Z,7.80
2019-02-27T08:24:05.525Z,7.40
2019-02-27T08:26:31.540Z,7.67
2019-02-27T08:28:59.754Z,8.23
2019-02-27T08:31:28.836Z,8.03
2019-02-27T08:33:57.207Z,7.00
2019-02-27T08:36:25.463Z,8.07
2019-02-27T08:38:53.682Z,8.67
2019-02-27T08:41:21.900Z,7.63
2019-02-27T08:43:50.127Z,7.80
2019-02-27T08:46:18.350Z,7.57
2019-02-27T08:48:49.950Z,7.73
2019-02-27T08:51:16.472Z,6.83
2019-02-27T08:53:44.695Z,6.90
2019-02-27T08:56:12.970Z,7.83
2019-02-27T08:58:41.319Z,8.10
2019-02-27T09:01:10.091Z,8.13
2019-02-27T09:03:38.367Z,8.57
2019-02-27T09:06:06.581Z,9.07
2019-02-27T09:08:34.807Z,8.33
2019-02-27T09:11:06.587Z,8.57
2019-02-27T09:13:32.929Z,8.30
2019-02-27T09:16:01.145Z,8.67
2019-02-27T09:18:29.375Z,9.33
2019-02-27T09:20:57.595Z,8.67
2019-02-27T09:23:25.831Z,8.87
2019-02-27T09:25:57.235Z,8.50
2019-02-27T09:28:23.966Z,8.03
2019-02-27T09:30:52.223Z,8.60
2019-02-27T09:33:21.027Z,8.33
2019-02-27T09:35:49.246Z,9.03
2019-02-27T09:38:17.467Z,9.10
2019-02-27T09:40:45.691Z,9.23
2019-02-27T09:43:14.287Z,9.23
2019-02-27T09:45:46.294Z,9.13
2019-02-27T09:48:12.443Z,8.97
2019-02-27T09:50:47.656Z,8.47
2019-02-27T09:53:14.115Z,9.23
2019-02-27T09:55:42.411Z,8.27
2019-02-27T09:58:11.606Z,9.73
2019-02-27T10:00:47.448Z,9.57
2019-02-27T10:03:19.841Z,9.27
2019-02-27T10:05:45.575Z,9.10
2019-02-27T10:08:13.796Z,10.63
2019-02-27T10:10:44.725Z,9.30
2019-02-27T10:13:11.955Z,10.75
2019-02-27T10:15:40.163Z,9.60
2019-02-27T10:18:08.390Z,10.25
2019-02-27T10:20:37.326Z,11.35
2019-02-27T10:23:06.323Z,9.60
2019-02-27T10:25:34.555Z,10.60
2019-02-27T10:28:04.358Z,10.03
2019-02-27T10:30:32.706Z,9.65
2019-02-27T10:33:03.174Z,10.10
2019-02-27T10:35:30.956Z,10.38
2019-02-27T10:37:59.175Z,10.60
2019-02-27T10:40:27.476Z,10.40
2019-02-27T10:42:55.707Z,10.45
2019-02-27T10:45:23.934Z,10.20
2019-02-27T10:47:52.141Z,9.85
2019-02-27T10:50:20.380Z,10.00
2019-02-27T10:52:50.083Z,9.38
2019-02-27T10:55:19.092Z,10.25
2019-02-27T10:57:47.308Z,9.80
2019-02-27T11:00:25.170Z,9.90
2019-02-27T11:02:52.783Z,10.30
2019-02-27T11:05:21.014Z,8.70
2019-02-27T11:07:50.095Z,8.95
2019-02-27T11:10:19.242Z,8.60
2019-02-27T11:12:47.517Z,7.60
2019-02-27T11:15:17.534Z,7.72
2019-02-27T11:17:45.750Z,7.90
2019-02-27T11:20:14.247Z,7.10
2019-02-27T11:22:42.459Z,7.35
2019-02-27T11:25:11.839Z,8.25
2019-02-27T11:27:40.137Z,7.03
2019-02-27T11:30:18.131Z,7.50
2019-02-27T11:32:46.344Z,6.17
2019-02-27T11:35:14.553Z,6.80
2019-02-27T11:37:44.355Z,7.10
2019-02-27T11:40:14.223Z,5.97
2019-02-27T11:42:42.449Z,5.45
2019-02-27T11:45:12.035Z,5.70
2019-02-27T11:47:45.097Z,5.50
2019-02-27T11:50:11.712Z,5.70
2019-02-27T11:52:48.286Z,5.35
2019-02-27T11:55:11.339Z,5.20
2019-02-27T11:57:39.578Z,5.10
2019-02-27T12:00:09.699Z,5.03
2019-02-27T12:02:38.035Z,4.65
2019-02-27T12:05:08.189Z,4.08
2019-02-27T12:07:36.405Z,4.15
2019-02-27T12:10:06.582Z,4.05
2019-02-27T12:12:36.318Z,4.17
2019-02-27T12:15:06.743Z,3.37
2019-02-27T12:17:36.362Z,4.92
2019-02-27T12:20:05.547Z,5.17
2019-02-27T12:22:35.256Z,4.22
2019-02-27T12:25:04.251Z,4.42
2019-02-27T12:27:48.530Z,5.10
2019-02-27T12:30:03.097Z,3.42
2019-02-27T12:32:32.190Z,4.03
2019-02-27T12:35:00.402Z,5.03
2019-02-27T12:37:33.751Z,3.80
2019-02-27T12:39:58.548Z,3.58
2019-02-27T12:42:36.770Z,4.05
2019-02-27T12:44:56.684Z,3.30
2019-02-27T12:47:24.912Z,4.37
2019-02-27T12:49:54.170Z,3.42
2019-02-27T12:52:23.115Z,3.17
2019-02-27T12:54:51.337Z,3.00
2019-02-27T12:57:19.563Z,2.60
2019-02-27T12:59:47.770Z,2.65
2019-02-27T13:02:15.990Z,2.70
2019-02-27T13:04:44.206Z,2.67
2019-02-27T13:07:12.430Z,2.22
2019-02-27T13:09:40.651Z,2.65
2019-02-27T13:12:08.867Z,3.20
2019-02-27T13:14:37.075Z,4.00
2019-02-27T13:17:05.301Z,3.70
2019-02-27T13:19:33.515Z,3.55
2019-02-27T13:22:01.726Z,3.65
2019-02-27T13:24:29.951Z,3.47
2019-02-27T13:26:58.172Z,3.20
2019-02-27T13:29:26.392Z,3.70
2019-02-27T13:31:56.499Z,4.10
2019-02-27T13:34:24.536Z,3.65
2019-02-27T13:36:52.747Z,4.00
2019-02-27T13:39:25.379Z,3.55
2019-02-27T13:41:50.866Z,3.05
2019-02-27T13:44:19.106Z,3.62
2019-02-27T13:46:47.314Z,3.90
2019-02-27T13:49:15.536Z,4.57
2019-02-27T13:51:43.744Z,3.03
2019-02-27T13:54:11.979Z,4.67
2019-02-27T13:56:40.185Z,3.20
2019-02-27T13:59:10.923Z,3.30
2019-02-27T14:01:38.509Z,3.80
2019-02-27T14:04:06.731Z,3.30
2019-02-27T14:06:34.957Z,3.40
2019-02-27T14:09:04.386Z,3.40
2019-02-27T14:11:33.622Z,3.23
2019-02-27T14:14:01.860Z,3.73
2019-02-27T14:16:34.566Z,3.13
2019-02-27T14:18:59.987Z,2.80
2019-02-27T14:21:28.202Z,3.50
2019-02-27T14:23:56.438Z,3.10
2019-02-27T14:26:24.652Z,3.40
2019-02-27T14:28:55.150Z,3.20
2019-02-27T14:31:22.787Z,3.20
2019-02-27T14:33:51.245Z,3.43
2019-02-27T14:36:20.917Z,3.10
2019-02-27T14:38:49.225Z,2.90
2019-02-27T14:41:17.452Z,3.00
2019-02-27T14:43:45.667Z,3.00
2019-02-27T14:46:13.882Z,2.87
2019-02-27T14:48:42.116Z,2.90
2019-02-27T14:51:11.222Z,2.77
2019-02-27T14:53:39.542Z,2.53
2019-02-27T14:56:10.023Z,2.90
2019-02-27T14:58:38.567Z,2.83
2019-02-27T15:01:07.240Z,2.67
2019-02-27T15:03:35.463Z,2.37
2019-02-27T15:06:03.828Z,2.47
2019-02-27T15:08:32.052Z,2.53
2019-02-27T15:11:00.267Z,2.90
2019-02-27T15:13:28.975Z,2.77
2019-02-27T15:15:57.292Z,2.67
2019-02-27T15:18:25.807Z,2.70
2019-02-27T15:20:54.091Z,2.47
2019-02-27T15:23:24.475Z,2.63
2019-02-27T15:25:52.219Z,2.23
2019-02-27T15:28:20.429Z,2.47
2019-02-27T15:30:48.665Z,2.30
2019-02-27T15:33:16.876Z,2.07
2019-02-27T15:35:45.098Z,2.10
2019-02-27T15:38:13.639Z,2.23
2019-02-27T15:40:41.866Z,2.43
2019-02-27T15:43:11.475Z,2.47
2019-02-27T15:45:47.519Z,2.50
2019-02-27T15:48:10.335Z,2.50
2019-02-27T15:50:38.551Z,2.40
2019-02-27T15:53:06.765Z,2.73
2019-02-27T15:55:35.428Z,2.20
2019-02-27T15:58:04.579Z,2.47
2019-02-27T16:00:32.799Z,3.23
2019-02-27T16:03:01.054Z,2.40
2019-02-27T16:05:31.273Z,3.63
2019-02-27T16:07:59.465Z,2.60
2019-02-27T16:10:28.167Z,3.10
2019-02-27T16:12:59.827Z,5.10
2019-02-27T16:15:26.482Z,3.07
2019-02-27T16:17:54.694Z,3.57
2019-02-27T16:20:23.690Z,3.73
2019-02-27T16:22:52.447Z,4.17
2019-02-27T16:25:21.531Z,3.63
2019-02-27T16:27:49.749Z,3.40
2019-02-27T16:30:22.387Z,3.60
2019-02-27T16:32:50.600Z,4.07
2019-02-27T16:35:18.824Z,4.50
2019-02-27T16:37:47.096Z,3.53
2019-02-27T16:40:18.039Z,4.27
2019-02-27T16:42:46.192Z,3.87
2019-02-27T16:45:15.578Z,4.27
2019-02-27T16:47:43.786Z,4.40
2019-02-27T16:50:23.912Z,4.03
2019-02-27T16:52:48.951Z,3.70
2019-02-27T16:55:18.338Z,3.53
2019-02-27T16:57:46.553Z,4.73
2019-02-27T17:00:21.357Z,4.90
2019-02-27T17:02:49.174Z,4.93
2019-02-27T17:05:17.408Z,4.97
2019-02-27T17:07:45.619Z,4.47
2019-02-27T17:10:17.861Z,4.90
2019-02-27T17:12:45.188Z,11.33
2019-02-27T17:15:13.482Z,6.67
2019-02-27T17:17:41.696Z,5.97
2019-02-27T17:20:12.757Z,6.50
2019-02-27T17:22:41.120Z,5.73
2019-02-27T17:25:10.986Z,8.17
2019-02-27T17:27:39.200Z,6.93
2019-02-27T17:30:11.638Z,8.47
2019-02-27T17:32:39.853Z,6.70
2019-02-27T17:35:08.243Z,7.23
2019-02-27T17:37:37.377Z,7.03
2019-02-27T17:40:10.759Z,9.43
2019-02-27T17:42:38.970Z,8.23
2019-02-27T17:45:10.039Z,9.70
2019-02-27T17:47:38.976Z,9.13
2019-02-27T17:50:08.875Z,7.17
2019-02-27T17:52:37.082Z,7.13
2019-02-27T17:55:07.491Z,8.10
2019-02-27T17:57:35.762Z,8.77
2019-02-27T18:00:05.852Z,8.60
2019-02-27T18:02:34.093Z,9.53
2019-02-27T18:05:02.302Z,9.50
2019-02-27T18:07:34.332Z,10.63
2019-02-27T18:10:01.170Z,13.93
2019-02-27T18:12:30.574Z,10.60
2019-02-27T18:14:58.791Z,9.97
2019-02-27T18:17:27.015Z,7.60
2019-02-27T18:19:55.227Z,7.57
2019-02-27T18:22:23.442Z,9.00
2019-02-27T18:24:51.666Z,8.70
2019-02-27T18:27:24.666Z,9.17
2019-02-27T18:29:50.051Z,8.60
2019-02-27T18:32:18.282Z,11.30
2019-02-27T18:34:46.507Z,10.20
2019-02-27T18:37:14.802Z,9.40
2019-02-27T18:39:43.014Z,10.17
2019-02-27T18:42:11.248Z,9.67
2019-02-27T18:44:41.492Z,9.60
2019-02-27T18:47:09.378Z,11.00
2019-02-27T18:49:37.588Z,9.13
2019-02-27T18:52:06.749Z,8.47
2019-02-27T18:54:35.912Z,8.93
2019-02-27T18:57:04.130Z,7.93
2019-02-27T18:59:32.343Z,8.93
2019-02-27T19:02:00.563Z,6.70
2019-02-27T19:04:28.776Z,5.40
2019-02-27T19:06:57.011Z,5.93
2019-02-27T19:09:25.558Z,7.43
2019-02-27T19:11:53.778Z,6.23
2019-02-27T19:14:21.986Z,7.27
2019-02-27T19:16:52.106Z,7.67
2019-02-27T19:19:20.179Z,8.23
2019-02-27T19:21:48.394Z,6.50
2019-02-27T19:24:16.607Z,7.37
2019-02-27T19:26:45.064Z,6.53
2019-02-27T19:29:13.593Z,6.60
2019-02-27T19:31:41.826Z,6.23
2019-02-27T19:34:10.434Z,6.90
2019-02-27T19:36:39.199Z,6.30
2019-02-27T19:39:07.491Z,6.50
2019-02-27T19:41:39.641Z,6.50
2019-02-27T19:44:05.653Z,6.30
2019-02-27T19:46:33.867Z,7.20
2019-02-27T19:49:03.542Z,7.73
2019-02-27T19:51:32.462Z,7.03
2019-02-27T19:54:00.703Z,6.53
2019-02-27T19:56:28.915Z,5.60
2019-02-27T19:58:57.161Z,7.67
2019-02-27T20:01:25.373Z,9.60
2019-02-27T20:03:53.609Z,5.43
2019-02-27T20:06:24.575Z,5.63
2019-02-27T20:08:51.744Z,8.43
2019-02-27T20:11:19.962Z,8.53
2019-02-27T20:13:48.192Z,8.07
2019-02-27T20:16:17.757Z,7.37
2019-02-27T20:18:54.547Z,7.30
2019-02-27T20:21:16.342Z,6.13
2019-02-27T20:23:44.634Z,7.83
2019-02-27T20:26:14.288Z,7.47
2019-02-27T20:28:42.651Z,6.57
2019-02-27T20:31:10.863Z,6.27
2019-02-27T20:33:39.366Z,8.07
2019-02-27T20:36:07.595Z,5.97
2019-02-27T20:38:36.456Z,6.10
2019-02-27T20:41:05.872Z,5.67
2019-02-27T20:43:34.661Z,5.63
2019-02-27T20:46:02.880Z,5.53
2019-02-27T20:48:32.349Z,6.93
2019-02-27T20:51:05.681Z,7.47
2019-02-27T20:53:32.529Z,6.27
2019-02-27T20:56:03.103Z,7.83
2019-02-27T20:58:30.668Z,6.50
2019-02-27T21:00:58.892Z,7.80
2019-02-27T21:03:27.996Z,7.80
2019-02-27T21:05:56.319Z,14.87
2019-02-27T21:08:24.946Z,12.43
2019-02-27T21:10:55.229Z,15.53
2019-02-27T21:13:23.094Z,15.37
2019-02-27T21:15:51.391Z,18.13
2019-02-27T21:18:19.615Z,19.70
2019-02-27T21:20:47.839Z,20.50
2019-02-27T21:23:16.146Z,23.47
2019-02-27T21:25:48.732Z,13.63
2019-02-27T21:28:20.651Z,19.57
2019-02-27T21:30:44.209Z,17.13
2019-02-27T21:33:12.729Z,16.07
2019-02-27T21:35:40.939Z,11.43
2019-02-27T21:38:09.347Z,6.60
2019-02-27T21:40:37.563Z,7.37
2019-02-27T21:43:05.768Z,7.40
2019-02-27T21:45:37.107Z,8.27
2019-02-27T21:48:03.975Z,7.67
2019-02-27T21:50:32.215Z,6.70
2019-02-27T21:53:00.435Z,7.07
2019-02-27T21:55:28.676Z,7.53
2019-02-27T21:57:58.014Z,6.57
2019-02-27T22:00:28.726Z,5.77
2019-02-27T22:02:57.657Z,6.00
2019-02-27T22:05:26.010Z,7.00
2019-02-27T22:07:54.206Z,6.20
2019-02-27T22:10:22.436Z,4.37
2019-02-27T22:12:50.654Z,5.57
2019-02-27T22:15:22.926Z,5.27
2019-02-27T22:17:50.331Z,6.23
2019-02-27T22:20:18.558Z,6.07
2019-02-27T22:22:46.832Z,6.67
2019-02-27T22:25:15.061Z,6.67
2019-02-27T22:27:45.919Z,6.80
2019-02-27T22:30:14.376Z,6.50
2019-02-27T22:32:47.749Z,5.90
2019-02-27T22:35:12.676Z,7.07
2019-02-27T22:37:41.053Z,6.17
2019-02-27T22:40:10.814Z,7.63
2019-02-27T22:42:39.103Z,6.43
2019-02-27T22:45:08.694Z,5.93
2019-02-27T22:47:36.899Z,6.37
2019-02-27T22:50:07.008Z,6.13
2019-02-27T22:52:35.387Z,6.27
2019-02-27T22:55:04.191Z,5.93
2019-02-27T22:57:32.414Z,6.50
2019-02-27T23:00:00.626Z,6.40
2019-02-27T23:02:29.315Z,5.30
2019-02-27T23:04:57.535Z,5.30
2019-02-27T23:07:25.742Z,5.30
2019-02-27T23:09:54.032Z,5.47
2019-02-27T23:12:22.933Z,5.13
2019-02-27T23:14:52.975Z,5.57
2019-02-27T23:17:21.064Z,4.90
2019-02-27T23:19:49.283Z,4.87
2019-02-27T23:22:17.499Z,5.40
2019-02-27T23:24:45.718Z,4.57
2019-02-27T23:27:13.922Z,5.60
2019-02-27T23:29:42.163Z,5.13
2019-02-27T23:32:10.358Z,4.83
2019-02-27T23:34:41.839Z,4.57
2019-02-27T23:37:08.503Z,5.00
2019-02-27T23:39:39.695Z,5.17
2019-02-27T23:42:06.635Z,5.00
2019-02-27T23:44:38.463Z,4.43
2019-02-27T23:47:04.835Z,4.90
2019-02-27T23:49:33.038Z,4.63
2019-02-27T23:52:01.253Z,4.10
2019-02-27T23:54:32.284Z,4.47
2019-02-27T23:57:19.815Z,4.50
2019-02-27T23:59:48.031Z,4.47
